createdAt,value
2022-12-03T00:02:16.994Z,87.93
2022-12-03T00:04:43.875Z,88.07
2022-12-03T00:07:10.700Z,88.11
2022-12-03T00:09:37.434Z,87.97
2022-12-03T00:12:04.325Z,88.22
2022-12-03T00:14:31.054Z,87.97
2022-12-03T00:16:57.777Z,87.79
2022-12-03T00:19:24.654Z,87.88
2022-12-03T00:21:51.387Z,88.19
2022-12-03T00:24:18.131Z,87.94
2022-12-03T00:26:44.931Z,88.05
2022-12-03T00:29:11.675Z,88.15
2022-12-03T00:31:38.472Z,88.50
2022-12-03T00:34:05.363Z,88.29
2022-12-03T00:36:32.087Z,89.01
2022-12-03T00:38:58.885Z,88.58
2022-12-03T00:41:25.641Z,88.87
2022-12-03T00:43:57.371Z,89.00
2022-12-03T00:46:25.385Z,89.05
2022-12-03T00:48:52.375Z,89.13
2022-12-03T00:51:19.400Z,89.15
2022-12-03T00:53:46.169Z,88.97
2022-12-03T00:56:12.921Z,89.09
2022-12-03T00:58:39.676Z,89.40
2022-12-03T01:01:06.432Z,89.30
2022-12-03T01:03:33.216Z,89.20
2022-12-03T01:06:00.017Z,89.20
2022-12-03T01:08:26.707Z,89.04
2022-12-03T01:10:53.475Z,89.06
2022-12-03T01:13:20.191Z,88.85
2022-12-03T01:15:47.994Z,88.68
2022-12-03T01:18:14.887Z,88.57
2022-12-03T01:20:41.655Z,89.08
2022-12-03T01:23:08.390Z,88.98
2022-12-03T01:25:35.239Z,89.17
2022-12-03T01:28:01.970Z,89.34
2022-12-03T01:30:28.778Z,89.02
2022-12-03T01:32:55.547Z,89.23
2022-12-03T01:35:22.288Z,89.31
2022-12-03T01:37:49.020Z,89.22
2022-12-03T01:40:20.045Z,89.14
2022-12-03T01:42:46.876Z,88.80
2022-12-03T01:45:23.987Z,88.50
2022-12-03T01:47:51.176Z,88.65
2022-12-03T01:50:31.881Z,88.66
2022-12-03T01:53:01.548Z,89.05
2022-12-03T01:55:28.761Z,89.11
2022-12-03T01:57:58.960Z,89.36
2022-12-03T02:00:27.356Z,89.61
2022-12-03T02:02:57.655Z,89.25
2022-12-03T02:05:27.527Z,89.05
2022-12-03T02:07:55.376Z,89.12
2022-12-03T02:10:36.169Z,89.45
2022-12-03T02:13:08.877Z,89.47
2022-12-03T02:15:38.310Z,89.52
2022-12-03T02:18:05.715Z,89.65
2022-12-03T02:20:45.519Z,89.70
2022-12-03T02:24:00.863Z,89.76
2022-12-03T02:26:27.890Z,89.69
2022-12-03T02:28:54.654Z,89.83
2022-12-03T02:31:22.541Z,89.75
2022-12-03T02:33:49.711Z,89.81
2022-12-03T02:36:16.802Z,89.79
2022-12-03T02:38:46.108Z,90.05
2022-12-03T02:41:35.688Z,90.00
2022-12-03T02:44:03.684Z,90.06
2022-12-03T02:46:30.927Z,89.88
2022-12-03T02:48:59.003Z,89.88
2022-12-03T02:51:26.876Z,90.20
2022-12-03T02:53:55.154Z,90.20
2022-12-03T02:56:26.618Z,89.92
2022-12-03T02:58:58.323Z,90.13
2022-12-03T03:01:25.269Z,90.00
2022-12-03T03:03:52.803Z,90.09
2022-12-03T03:06:20.882Z,90.03
2022-12-03T03:08:48.380Z,89.89
2022-12-03T03:11:15.210Z,90.23
2022-12-03T03:13:42.160Z,90.13
2022-12-03T03:16:09.490Z,90.52
2022-12-03T03:18:36.988Z,89.99
2022-12-03T03:21:04.303Z,90.47
2022-12-03T03:23:31.441Z,90.58
2022-12-03T03:26:12.791Z,90.21
2022-12-03T03:28:44.103Z,89.98
2022-12-03T03:31:14.302Z,89.87
2022-12-03T03:33:43.305Z,90.04
2022-12-03T03:36:10.440Z,89.62
2022-12-03T03:38:38.852Z,89.56
2022-12-03T03:41:07.828Z,89.41
2022-12-03T03:43:35.612Z,89.29
2022-12-03T03:46:05.441Z,89.66
2022-12-03T03:48:34.558Z,89.09
2022-12-03T03:51:03.813Z,89.14
2022-12-03T03:53:31.004Z,89.18
2022-12-03T03:55:57.827Z,89.01
2022-12-03T03:58:24.576Z,88.82
2022-12-03T04:00:51.924Z,88.55
2022-12-03T04:03:21.679Z,88.58
2022-12-03T04:05:51.090Z,88.62
2022-12-03T04:08:21.071Z,88.30
2022-12-03T04:11:06.404Z,88.62
2022-12-03T04:13:33.142Z,88.62
2022-12-03T04:15:59.927Z,88.46
2022-12-03T04:18:44.935Z,88.46
2022-12-03T04:21:32.299Z,88.79
2022-12-03T04:23:59.327Z,88.48
2022-12-03T04:26:44.434Z,88.20
2022-12-03T04:29:11.726Z,88.19
2022-12-03T04:31:57.300Z,88.66
2022-12-03T04:34:43.568Z,88.58
2022-12-03T04:37:10.721Z,88.34
2022-12-03T04:39:37.611Z,88.56
2022-12-03T04:42:05.776Z,89.18
2022-12-03T04:44:33.283Z,89.22
2022-12-03T04:47:05.991Z,88.97
2022-12-03T04:49:34.192Z,89.03
2022-12-03T04:52:00.970Z,88.95
2022-12-03T04:54:28.663Z,88.87
2022-12-03T04:56:55.574Z,89.27
2022-12-03T04:59:22.656Z,89.35
2022-12-03T05:01:49.471Z,89.10
2022-12-03T05:04:16.728Z,89.01
2022-12-03T05:06:43.583Z,88.99
2022-12-03T05:09:10.982Z,88.99
2022-12-03T05:11:37.822Z,89.07
2022-12-03T05:14:05.130Z,88.84
2022-12-03T05:16:32.210Z,88.99
2022-12-03T05:18:58.967Z,88.97
2022-12-03T05:21:25.787Z,88.78
2022-12-03T05:23:52.583Z,88.99
2022-12-03T05:26:19.276Z,88.98
2022-12-03T05:28:46.122Z,88.50
2022-12-03T05:31:13.136Z,88.34
2022-12-03T05:33:44.266Z,88.83
2022-12-03T05:36:11.487Z,88.54
2022-12-03T05:38:38.410Z,88.58
2022-12-03T05:41:28.353Z,88.99
2022-12-03T05:43:55.114Z,89.27
2022-12-03T05:46:21.989Z,89.41
2022-12-03T05:48:48.762Z,89.90
2022-12-03T05:51:15.466Z,90.16
2022-12-03T05:53:42.246Z,90.79
2022-12-03T05:56:09.057Z,90.96
2022-12-03T05:58:35.769Z,91.39
2022-12-03T06:01:02.534Z,91.46
2022-12-03T06:03:29.483Z,91.57
2022-12-03T06:05:56.267Z,92.20
2022-12-03T06:08:23.004Z,92.22
2022-12-03T06:10:49.787Z,92.31
2022-12-03T06:13:16.530Z,92.65
2022-12-03T06:15:44.186Z,92.77
2022-12-03T06:18:11.540Z,92.44
2022-12-03T06:20:38.315Z,91.96
2022-12-03T06:23:05.362Z,92.13
2022-12-03T06:25:32.160Z,91.93
2022-12-03T06:27:58.939Z,92.45
2022-12-03T06:30:25.699Z,91.74
2022-12-03T06:32:52.753Z,92.05
2022-12-03T06:35:19.563Z,91.64
2022-12-03T06:37:46.403Z,91.93
2022-12-03T06:40:13.664Z,91.51
2022-12-03T06:42:40.434Z,91.44
2022-12-03T06:45:07.479Z,91.43
2022-12-03T06:47:34.285Z,91.11
2022-12-03T06:50:01.064Z,90.92
2022-12-03T06:52:27.901Z,90.96
2022-12-03T06:54:54.837Z,90.98
2022-12-03T06:57:21.835Z,90.46
2022-12-03T06:59:48.573Z,90.27
2022-12-03T07:02:15.324Z,90.11
2022-12-03T07:04:46.120Z,89.93
2022-12-03T07:07:18.592Z,90.21
2022-12-03T07:09:53.562Z,91.03
2022-12-03T07:12:20.415Z,90.56
2022-12-03T07:14:47.104Z,90.31
2022-12-03T07:17:14.084Z,90.52
2022-12-03T07:19:40.851Z,90.15
2022-12-03T07:22:07.683Z,90.10
2022-12-03T07:24:34.471Z,90.37
2022-12-03T07:27:01.222Z,90.47
2022-12-03T07:29:28.006Z,90.23
2022-12-03T07:31:54.797Z,90.15
2022-12-03T07:34:21.672Z,90.26
2022-12-03T07:36:48.403Z,90.52
2022-12-03T07:39:15.387Z,90.37
2022-12-03T07:41:42.152Z,90.35
2022-12-03T07:44:13.979Z,90.59
2022-12-03T07:46:41.958Z,90.36
2022-12-03T07:49:08.927Z,90.52
2022-12-03T07:51:35.796Z,90.34
2022-12-03T07:54:02.577Z,90.38
2022-12-03T07:56:29.452Z,90.03
2022-12-03T07:58:56.276Z,90.21
2022-12-03T08:01:23.174Z,90.12
2022-12-03T08:03:49.959Z,89.91
2022-12-03T08:06:16.770Z,89.99
2022-12-03T08:08:43.787Z,89.75
2022-12-03T08:11:14.991Z,89.45
2022-12-03T08:13:41.736Z,89.83
2022-12-03T08:16:20.670Z,89.89
2022-12-03T08:18:49.514Z,89.83
2022-12-03T08:21:18.666Z,89.66
2022-12-03T08:23:45.931Z,89.26
2022-12-03T08:26:28.797Z,89.20
2022-12-03T08:28:55.786Z,89.59
2022-12-03T08:31:32.250Z,88.98
2022-12-03T08:34:15.618Z,89.53
2022-12-03T08:36:42.560Z,89.72
2022-12-03T08:39:24.619Z,89.57
2022-12-03T08:42:19.813Z,88.87
2022-12-03T08:44:46.606Z,88.91
2022-12-03T08:47:21.451Z,89.00
2022-12-03T08:49:58.086Z,88.95
2022-12-03T08:52:31.702Z,88.93
2022-12-03T08:55:00.163Z,88.64
2022-12-03T08:57:29.847Z,89.44
2022-12-03T09:00:01.201Z,89.43
2022-12-03T09:02:34.404Z,89.72
2022-12-03T09:05:21.536Z,89.94
2022-12-03T09:07:48.866Z,89.96
2022-12-03T09:10:15.862Z,89.72
2022-12-03T09:12:42.627Z,89.81
2022-12-03T09:15:09.932Z,89.89
2022-12-03T09:17:37.112Z,89.52
2022-12-03T09:20:05.239Z,90.02
2022-12-03T09:22:32.510Z,89.82
2022-12-03T09:25:01.623Z,89.91
2022-12-03T09:27:28.606Z,89.80
2022-12-03T09:29:55.450Z,90.08
2022-12-03T09:32:24.299Z,89.96
2022-12-03T09:34:51.577Z,89.93
2022-12-03T09:37:18.725Z,89.24
2022-12-03T09:39:45.561Z,89.61
2022-12-03T09:42:13.063Z,90.83
2022-12-03T09:44:39.866Z,90.60
2022-12-03T09:47:08.749Z,90.94
2022-12-03T09:49:37.523Z,91.21
2022-12-03T09:52:06.164Z,90.57
2022-12-03T09:54:33.737Z,90.66
2022-12-03T09:57:02.755Z,90.52
2022-12-03T09:59:35.139Z,90.49
2022-12-03T10:02:02.760Z,90.23
2022-12-03T10:04:30.472Z,90.33
2022-12-03T10:06:58.764Z,91.04
2022-12-03T10:09:28.538Z,90.58
2022-12-03T10:11:59.865Z,90.46
2022-12-03T10:14:28.376Z,90.19
2022-12-03T10:16:55.841Z,91.02
2022-12-03T10:19:30.424Z,90.52
2022-12-03T10:21:57.618Z,90.61
2022-12-03T10:24:30.081Z,90.58
2022-12-03T10:27:02.195Z,90.59
2022-12-03T10:29:34.909Z,90.38
2022-12-03T10:32:03.241Z,90.56
2022-12-03T10:34:35.910Z,90.16
2022-12-03T10:37:28.249Z,90.45
2022-12-03T10:39:59.229Z,90.63
2022-12-03T10:42:41.195Z,90.98
2022-12-03T10:45:25.354Z,91.06
2022-12-03T10:48:14.011Z,90.49
2022-12-03T10:50:52.764Z,90.70
2022-12-03T10:53:22.141Z,90.60
2022-12-03T10:55:51.635Z,90.48
2022-12-03T10:58:24.635Z,90.18
2022-12-03T11:00:53.497Z,90.25
2022-12-03T11:03:33.848Z,90.73
2022-12-03T11:06:02.695Z,91.06
2022-12-03T11:08:36.444Z,90.96
2022-12-03T11:11:32.555Z,90.80
2022-12-03T11:14:18.068Z,91.16
2022-12-03T11:16:48.168Z,91.54
2022-12-03T11:19:38.799Z,91.77
2022-12-03T11:22:05.585Z,91.49
2022-12-03T11:24:34.371Z,91.89
2022-12-03T11:27:05.478Z,91.64
2022-12-03T11:29:54.958Z,91.51
2022-12-03T11:32:43.540Z,91.45
2022-12-03T11:35:25.341Z,91.62
2022-12-03T11:37:52.071Z,91.42
2022-12-03T11:40:18.676Z,92.10
2022-12-03T11:42:47.602Z,92.34
2022-12-03T11:45:23.485Z,92.67
2022-12-03T11:47:59.234Z,93.13
2022-12-03T11:50:44.179Z,93.41
2022-12-03T11:53:10.880Z,93.33
2022-12-03T11:55:40.958Z,93.67
2022-12-03T11:58:35.083Z,93.45
2022-12-03T12:01:05.026Z,93.88
2022-12-03T12:03:50.399Z,94.16
2022-12-03T12:06:19.603Z,94.37
2022-12-03T12:08:52.425Z,94.62
2022-12-03T12:11:20.268Z,94.57
2022-12-03T12:13:57.984Z,94.73
2022-12-03T12:16:50.402Z,94.99
2022-12-03T12:19:43.255Z,94.93
2022-12-03T12:22:25.345Z,95.35
2022-12-03T12:25:05.336Z,95.18
2022-12-03T12:27:49.518Z,95.19
2022-12-03T12:30:19.857Z,95.24
2022-12-03T12:32:47.208Z,95.76
2022-12-03T12:35:32.865Z,95.90
2022-12-03T12:38:16.845Z,96.15
2022-12-03T12:40:46.847Z,96.17
2022-12-03T12:43:27.251Z,96.40
2022-12-03T12:46:13.627Z,97.03
2022-12-03T12:48:45.754Z,97.22
2022-12-03T12:51:15.473Z,97.21
2022-12-03T12:53:42.943Z,97.17
2022-12-03T12:56:30.972Z,97.55
2022-12-03T12:59:20.497Z,97.89
2022-12-03T13:01:49.722Z,97.77
2022-12-03T13:04:19.726Z,98.01
2022-12-03T13:06:49.130Z,98.03
2022-12-03T13:09:21.471Z,98.84
2022-12-03T13:11:57.726Z,98.70
2022-12-03T13:14:26.754Z,98.83
2022-12-03T13:16:56.692Z,99.35
2022-12-03T13:19:25.644Z,98.89
2022-12-03T13:21:58.555Z,99.62
2022-12-03T13:24:34.321Z,99.40
2022-12-03T13:27:20.686Z,99.71
2022-12-03T13:29:57.505Z,100.00
2022-12-03T13:32:43.604Z,99.97
2022-12-03T13:35:10.313Z,100.00
2022-12-03T13:37:38.517Z,100.00
2022-12-03T13:40:25.843Z,100.00
2022-12-03T13:42:53.185Z,100.00
2022-12-03T13:45:19.932Z,100.00
2022-12-03T13:47:55.884Z,100.00
2022-12-03T13:50:38.854Z,100.00
2022-12-03T13:53:11.868Z,100.00
2022-12-03T13:55:42.989Z,100.00
2022-12-03T13:58:09.736Z,100.00
2022-12-03T14:00:36.613Z,100.00
2022-12-03T14:03:04.314Z,100.00
2022-12-03T14:05:31.508Z,100.00
2022-12-03T14:08:01.707Z,100.00
2022-12-03T14:10:29.207Z,100.00
2022-12-03T14:12:56.729Z,100.00
2022-12-03T14:15:24.891Z,100.00
2022-12-03T14:17:51.979Z,100.00
2022-12-03T14:20:19.327Z,100.00
2022-12-03T14:22:46.011Z,100.00
2022-12-03T14:25:12.768Z,100.00
2022-12-03T14:27:39.996Z,100.00
2022-12-03T14:30:07.277Z,100.00
2022-12-03T14:32:33.978Z,100.00
2022-12-03T14:35:03.971Z,100.00
2022-12-03T14:37:35.028Z,100.00
2022-12-03T14:40:03.648Z,100.00
2022-12-03T14:42:30.393Z,100.00
2022-12-03T14:44:57.131Z,100.00
2022-12-03T14:47:23.972Z,100.00
2022-12-03T14:49:52.042Z,100.00
2022-12-03T14:52:19.920Z,100.00
2022-12-03T14:54:46.916Z,100.00
2022-12-03T14:57:14.713Z,100.00
2022-12-03T14:59:42.820Z,100.00
2022-12-03T15:02:10.705Z,100.00
2022-12-03T15:04:38.585Z,100.00
2022-12-03T15:07:05.492Z,100.00
2022-12-03T15:09:32.264Z,100.00
2022-12-03T15:12:00.111Z,100.00
2022-12-03T15:14:26.976Z,100.00
2022-12-03T15:16:53.854Z,100.00
2022-12-03T15:19:20.664Z,100.00
2022-12-03T15:21:47.450Z,100.00
2022-12-03T15:24:14.152Z,100.00
2022-12-03T15:26:41.120Z,100.00
2022-12-03T15:29:08.137Z,100.00
2022-12-03T15:31:35.035Z,100.00
2022-12-03T15:34:01.922Z,100.00
2022-12-03T15:36:28.698Z,100.00
2022-12-03T15:38:56.487Z,100.00
2022-12-03T15:41:28.850Z,100.00
2022-12-03T15:43:59.035Z,100.00
2022-12-03T15:46:27.997Z,100.00
2022-12-03T15:48:55.534Z,100.00
2022-12-03T15:51:22.627Z,100.00
2022-12-03T15:53:49.529Z,100.00
2022-12-03T15:56:16.741Z,100.00
2022-12-03T15:58:43.694Z,100.00
2022-12-03T16:01:10.831Z,100.00
2022-12-03T16:03:37.687Z,100.00
2022-12-03T16:06:04.610Z,100.00
2022-12-03T16:08:31.357Z,100.00
2022-12-03T16:10:58.168Z,100.00
2022-12-03T16:13:25.049Z,100.00
2022-12-03T16:15:51.865Z,100.00
2022-12-03T16:18:18.728Z,100.00
2022-12-03T16:20:45.675Z,100.00
2022-12-03T16:23:12.446Z,100.00
2022-12-03T16:25:39.152Z,100.00
2022-12-03T16:28:05.896Z,100.00
2022-12-03T16:30:32.726Z,100.00
2022-12-03T16:32:59.551Z,100.00
2022-12-03T16:35:26.385Z,100.00
2022-12-03T16:37:53.145Z,100.00
2022-12-03T16:40:19.901Z,100.00
2022-12-03T16:42:46.828Z,99.78
2022-12-03T16:45:33.563Z,99.30
2022-12-03T16:48:01.725Z,98.73
2022-12-03T16:50:30.225Z,97.60
2022-12-03T16:52:57.769Z,97.24
2022-12-03T16:55:24.615Z,96.90
2022-12-03T16:57:51.412Z,96.84
2022-12-03T17:00:18.566Z,96.62
2022-12-03T17:02:45.480Z,96.17
2022-12-03T17:05:12.338Z,95.50
2022-12-03T17:07:39.349Z,95.69
2022-12-03T17:10:06.829Z,95.10
2022-12-03T17:13:00.737Z,94.96
2022-12-03T17:15:20.267Z,95.62
2022-12-03T17:17:47.043Z,95.60
2022-12-03T17:20:14.791Z,95.70
2022-12-03T17:22:41.984Z,95.62
2022-12-03T17:25:09.567Z,95.71
2022-12-03T17:27:42.104Z,96.13
2022-12-03T17:30:12.027Z,96.24
2022-12-03T17:32:38.832Z,96.11
2022-12-03T17:35:06.056Z,96.48
2022-12-03T17:37:32.844Z,96.92
2022-12-03T17:39:59.709Z,96.64
2022-12-03T17:42:26.881Z,96.88
2022-12-03T17:44:53.632Z,97.03
2022-12-03T17:47:20.359Z,97.27
2022-12-03T17:49:47.109Z,97.13
2022-12-03T17:52:13.931Z,97.18
2022-12-03T17:55:08.595Z,97.36
2022-12-03T17:57:27.521Z,97.23
2022-12-03T17:59:54.370Z,97.43
2022-12-03T18:02:21.296Z,97.38
2022-12-03T18:04:48.752Z,96.97
2022-12-03T18:07:15.480Z,97.24
2022-12-03T18:09:42.227Z,97.25
2022-12-03T18:12:09.027Z,97.59
2022-12-03T18:14:35.764Z,97.71
2022-12-03T18:17:02.493Z,97.61
2022-12-03T18:19:29.237Z,97.50
2022-12-03T18:21:56.011Z,97.56
2022-12-03T18:24:23.030Z,98.04
2022-12-03T18:26:50.340Z,98.34
2022-12-03T18:29:17.168Z,98.38
2022-12-03T18:31:44.009Z,98.78
2022-12-03T18:34:10.850Z,98.42
2022-12-03T18:36:37.816Z,98.54
2022-12-03T18:39:08.396Z,98.74
2022-12-03T18:41:35.731Z,98.63
2022-12-03T18:44:10.901Z,98.87
2022-12-03T18:46:52.871Z,98.91
2022-12-03T18:49:21.756Z,99.26
2022-12-03T18:51:49.376Z,99.15
2022-12-03T18:54:18.072Z,98.96
2022-12-03T18:56:44.835Z,99.22
2022-12-03T18:59:12.260Z,99.07
2022-12-03T19:01:39.058Z,99.59
2022-12-03T19:04:05.912Z,99.64
2022-12-03T19:06:32.740Z,99.06
2022-12-03T19:08:59.642Z,99.48
2022-12-03T19:11:26.543Z,99.27
2022-12-03T19:13:53.444Z,99.45
2022-12-03T19:16:20.407Z,99.79
2022-12-03T19:18:47.305Z,100.00
2022-12-03T19:21:16.284Z,99.45
2022-12-03T19:24:04.297Z,99.25
2022-12-03T19:26:30.951Z,98.94
2022-12-03T19:28:57.887Z,99.02
2022-12-03T19:31:24.866Z,99.33
2022-12-03T19:33:52.208Z,99.15
2022-12-03T19:36:22.612Z,98.99
2022-12-03T19:38:56.714Z,98.75
2022-12-03T19:41:27.289Z,99.09
2022-12-03T19:43:55.793Z,99.15
2022-12-03T19:46:24.497Z,99.14
2022-12-03T19:48:51.465Z,99.10
2022-12-03T19:51:34.088Z,98.94
2022-12-03T19:54:02.796Z,99.16
2022-12-03T19:56:32.536Z,99.25
2022-12-03T19:58:59.723Z,99.04
2022-12-03T20:01:29.320Z,99.29
2022-12-03T20:03:58.397Z,99.20
2022-12-03T20:06:28.907Z,98.88
2022-12-03T20:08:57.834Z,98.39
2022-12-03T20:11:27.140Z,98.00
2022-12-03T20:13:57.327Z,97.83
2022-12-03T20:16:25.212Z,97.18
2022-12-03T20:18:55.440Z,97.28
2022-12-03T20:21:22.199Z,96.89
2022-12-03T20:23:49.027Z,96.89
2022-12-03T20:26:18.164Z,96.70
2022-12-03T20:28:45.589Z,96.56
2022-12-03T20:31:18.511Z,96.53
2022-12-03T20:33:48.077Z,96.49
2022-12-03T20:36:16.539Z,96.70
2022-12-03T20:38:43.839Z,97.07
2022-12-03T20:41:14.085Z,97.13
2022-12-03T20:43:41.181Z,97.37
2022-12-03T20:46:13.256Z,97.20
2022-12-03T20:48:41.392Z,96.95
2022-12-03T20:51:10.717Z,97.09
2022-12-03T20:53:38.108Z,96.89
2022-12-03T20:56:06.282Z,97.00
2022-12-03T20:58:33.544Z,96.96
2022-12-03T21:01:18.591Z,97.19
2022-12-03T21:03:46.642Z,97.03
2022-12-03T21:06:14.350Z,97.17
2022-12-03T21:08:42.788Z,97.26
2022-12-03T21:11:12.675Z,97.42
2022-12-03T21:13:43.709Z,97.53
2022-12-03T21:16:13.471Z,97.06
2022-12-03T21:18:41.142Z,97.30
2022-12-03T21:21:08.684Z,97.43
2022-12-03T21:23:35.894Z,97.38
2022-12-03T21:26:09.345Z,97.58
2022-12-03T21:28:38.600Z,97.87
2022-12-03T21:31:11.069Z,97.41
2022-12-03T21:33:38.067Z,97.82
2022-12-03T21:36:06.168Z,97.73
2022-12-03T21:38:33.344Z,97.79
2022-12-03T21:41:01.375Z,97.41
2022-12-03T21:43:28.760Z,97.46
2022-12-03T21:45:55.954Z,97.71
2022-12-03T21:48:22.818Z,97.63
2022-12-03T21:51:11.511Z,97.74
2022-12-03T21:53:43.289Z,97.65
2022-12-03T21:56:16.048Z,97.55
2022-12-03T21:58:43.972Z,97.21
2022-12-03T22:01:12.267Z,97.25
2022-12-03T22:03:39.040Z,96.70
2022-12-03T22:06:06.067Z,97.04
2022-12-03T22:08:32.847Z,96.71
2022-12-03T22:11:04.443Z,96.83
2022-12-03T22:13:31.315Z,96.79
2022-12-03T22:15:58.116Z,97.06
2022-12-03T22:18:24.879Z,96.22
2022-12-03T22:20:51.602Z,96.65
2022-12-03T22:23:18.328Z,96.12
2022-12-03T22:25:45.042Z,96.08
2022-12-03T22:28:11.783Z,96.17
2022-12-03T22:30:41.671Z,96.02
2022-12-03T22:33:08.481Z,95.21
2022-12-03T22:35:35.284Z,95.71
2022-12-03T22:38:02.069Z,95.83
2022-12-03T22:40:28.783Z,95.61
2022-12-03T22:42:55.559Z,95.25
2022-12-03T22:45:22.279Z,95.43
2022-12-03T22:47:49.004Z,95.50
2022-12-03T22:50:18.513Z,95.65
2022-12-03T22:52:45.227Z,95.70
2022-12-03T22:55:11.971Z,95.66
2022-12-03T22:57:39.181Z,96.23
2022-12-03T23:00:09.842Z,96.49
2022-12-03T23:02:36.671Z,96.38
2022-12-03T23:05:03.764Z,96.93
2022-12-03T23:07:30.697Z,96.74
2022-12-03T23:09:57.910Z,96.78
2022-12-03T23:12:24.777Z,96.92
2022-12-03T23:14:55.267Z,97.11
2022-12-03T23:17:22.019Z,97.13
2022-12-03T23:19:48.896Z,96.85
2022-12-03T23:22:15.630Z,97.25
2022-12-03T23:24:42.333Z,96.96
2022-12-03T23:27:09.231Z,97.28
2022-12-03T23:29:35.965Z,96.97
2022-12-03T23:32:02.740Z,96.54
2022-12-03T23:34:29.657Z,96.67
2022-12-03T23:36:56.448Z,96.39
2022-12-03T23:39:23.227Z,96.33
2022-12-03T23:41:51.497Z,96.29
2022-12-03T23:44:18.387Z,95.68
2022-12-03T23:46:45.175Z,95.77
2022-12-03T23:49:12.005Z,96.01
2022-12-03T23:51:38.712Z,95.91
2022-12-03T23:54:05.501Z,96.24
2022-12-03T23:56:32.501Z,96.13
2022-12-03T23:58:59.323Z,96.21
